createdAt,value
2019-03-09T00:02:26.407Z,9.60
2019-03-09T00:04:54.141Z,9.60
2019-03-09T00:07:22.068Z,9.60
2019-03-09T00:09:50.676Z,9.60
2019-03-09T00:12:18.396Z,9.60
2019-03-09T00:14:45.735Z,9.60
2019-03-09T00:17:13.493Z,9.60
2019-03-09T00:19:40.993Z,9.50
2019-03-09T00:22:08.481Z,9.50
2019-03-09T00:24:56.684Z,9.50
2019-03-09T00:27:42.254Z,9.60
2019-03-09T00:30:18.770Z,9.50
2019-03-09T00:32:46.128Z,9.50
2019-03-09T00:35:14.149Z,9.50
2019-03-09T00:37:41.811Z,9.50
2019-03-09T00:40:10.664Z,9.50
2019-03-09T00:42:38.293Z,9.50
2019-03-09T00:45:06.086Z,9.50
2019-03-09T00:47:33.581Z,9.50
2019-03-09T00:50:00.968Z,9.50
2019-03-09T00:52:28.475Z,9.50
2019-03-09T00:54:56.255Z,9.50
2019-03-09T00:57:23.657Z,9.50
2019-03-09T00:59:55.272Z,9.40
2019-03-09T01:02:23.118Z,9.40
2019-03-09T01:04:50.509Z,9.40
2019-03-09T01:07:18.146Z,9.40
2019-03-09T01:09:45.717Z,9.40
2019-03-09T01:12:13.100Z,9.40
2019-03-09T01:14:42.539Z,9.40
2019-03-09T01:17:10.227Z,9.40
2019-03-09T01:19:37.576Z,9.40
2019-03-09T01:22:06.372Z,9.40
2019-03-09T01:24:35.135Z,9.40
2019-03-09T01:27:02.530Z,9.40
2019-03-09T01:29:29.982Z,9.40
2019-03-09T01:31:57.452Z,9.40
2019-03-09T01:34:24.804Z,9.40
2019-03-09T01:36:52.295Z,9.40
2019-03-09T01:39:20.253Z,9.40
2019-03-09T01:41:48.288Z,9.40
2019-03-09T01:44:16.147Z,9.40
2019-03-09T01:46:43.839Z,9.40
2019-03-09T01:49:11.269Z,9.40
2019-03-09T01:51:38.623Z,9.50
2019-03-09T01:54:06.270Z,9.40
2019-03-09T01:56:33.652Z,9.40
2019-03-09T01:59:02.968Z,9.40
2019-03-09T02:01:30.575Z,9.50
2019-03-09T02:03:58.265Z,9.50
2019-03-09T02:06:25.778Z,9.50
2019-03-09T02:08:53.152Z,9.50
2019-03-09T02:11:21.439Z,9.50
2019-03-09T02:13:49.117Z,9.50
2019-03-09T02:16:16.595Z,9.50
2019-03-09T02:18:45.926Z,9.50
2019-03-09T02:21:13.617Z,9.50
2019-03-09T02:23:41.125Z,9.50
2019-03-09T02:26:08.494Z,9.50
2019-03-09T02:28:36.312Z,9.50
2019-03-09T02:31:03.806Z,9.50
2019-03-09T02:33:31.558Z,9.50
2019-03-09T02:35:59.492Z,9.60
2019-03-09T02:38:37.884Z,9.60
2019-03-09T02:41:07.188Z,9.60
2019-03-09T02:43:34.911Z,9.60
2019-03-09T02:46:02.517Z,9.60
2019-03-09T02:48:30.626Z,9.60
2019-03-09T02:50:58.489Z,9.60
2019-03-09T02:53:26.349Z,9.60
2019-03-09T02:55:54.505Z,9.60
2019-03-09T02:58:22.234Z,9.60
2019-03-09T03:01:00.061Z,9.60
2019-03-09T03:03:27.537Z,9.60
2019-03-09T03:05:55.042Z,9.60
2019-03-09T03:08:22.556Z,9.60
2019-03-09T03:10:49.952Z,9.60
2019-03-09T03:13:18.309Z,9.60
2019-03-09T03:15:45.803Z,9.50
2019-03-09T03:18:13.300Z,9.50
2019-03-09T03:20:41.169Z,9.50
2019-03-09T03:23:08.566Z,9.50
2019-03-09T03:25:35.926Z,9.50
2019-03-09T03:28:03.476Z,9.50
2019-03-09T03:30:31.391Z,9.50
2019-03-09T03:32:59.722Z,9.50
2019-03-09T03:35:27.050Z,9.50
2019-03-09T03:37:55.312Z,9.50
2019-03-09T03:40:23.132Z,9.50
2019-03-09T03:42:50.436Z,9.50
2019-03-09T03:45:17.864Z,9.40
2019-03-09T03:47:46.264Z,9.40
2019-03-09T03:50:15.056Z,9.40
2019-03-09T03:52:42.677Z,9.40
2019-03-09T03:55:10.580Z,9.40
2019-03-09T03:57:38.234Z,9.40
2019-03-09T04:00:06.619Z,9.40
2019-03-09T04:02:34.133Z,9.40
2019-03-09T04:05:01.614Z,9.40
2019-03-09T04:07:29.110Z,9.40
2019-03-09T04:09:57.392Z,9.40
2019-03-09T04:12:24.957Z,9.40
2019-03-09T04:14:52.715Z,9.40
2019-03-09T04:17:20.259Z,9.40
2019-03-09T04:19:47.616Z,9.40
2019-03-09T04:22:14.965Z,9.40
2019-03-09T04:24:43.260Z,9.40
2019-03-09T04:27:10.743Z,9.40
2019-03-09T04:29:38.131Z,9.40
2019-03-09T04:32:05.730Z,9.40
2019-03-09T04:34:33.452Z,9.50
2019-03-09T04:37:00.904Z,9.50
2019-03-09T04:39:49.068Z,9.50
2019-03-09T04:42:16.391Z,9.50
2019-03-09T04:44:44.103Z,9.50
2019-03-09T04:47:11.973Z,9.50
2019-03-09T04:49:39.764Z,9.50
2019-03-09T04:52:07.202Z,9.50
2019-03-09T04:54:34.950Z,9.50
2019-03-09T04:57:03.558Z,9.50
2019-03-09T04:59:30.995Z,9.50
2019-03-09T05:01:58.815Z,9.50
2019-03-09T05:04:38.270Z,9.50
2019-03-09T05:07:05.636Z,9.50
2019-03-09T05:09:53.895Z,9.50
2019-03-09T05:12:21.626Z,9.50
2019-03-09T05:14:49.417Z,9.40
2019-03-09T05:17:16.879Z,9.40
2019-03-09T05:19:44.416Z,9.40
2019-03-09T05:22:11.803Z,9.40
2019-03-09T05:24:39.167Z,9.30
2019-03-09T05:27:06.567Z,9.30
2019-03-09T05:29:34.267Z,9.30
2019-03-09T05:32:01.897Z,9.30
2019-03-09T05:34:29.883Z,9.20
2019-03-09T05:36:57.574Z,9.20
2019-03-09T05:39:25.179Z,9.20
2019-03-09T05:41:52.971Z,9.20
2019-03-09T05:44:20.373Z,9.10
2019-03-09T05:46:50.144Z,9.10
2019-03-09T05:49:17.601Z,9.10
2019-03-09T05:52:22.718Z,9.00
2019-03-09T05:54:51.687Z,9.00
2019-03-09T05:57:31.357Z,9.00
2019-03-09T06:00:11.854Z,9.00
2019-03-09T06:02:39.467Z,9.00
2019-03-09T06:05:32.155Z,9.00
2019-03-09T06:07:59.914Z,9.00
2019-03-09T06:10:27.516Z,9.10
2019-03-09T06:12:54.864Z,9.00
2019-03-09T06:15:34.792Z,9.00
2019-03-09T06:18:02.145Z,9.00
2019-03-09T06:20:30.199Z,9.00
2019-03-09T06:22:59.286Z,9.00
2019-03-09T06:25:26.646Z,9.00
2019-03-09T06:27:53.988Z,9.00
2019-03-09T06:30:21.659Z,9.00
2019-03-09T06:33:14.570Z,9.00
2019-03-09T06:35:41.913Z,9.00
2019-03-09T06:38:33.391Z,9.00
2019-03-09T06:41:03.142Z,8.90
2019-03-09T06:43:30.968Z,8.90
2019-03-09T06:45:58.631Z,8.90
2019-03-09T06:48:26.058Z,8.90
2019-03-09T06:50:53.867Z,8.90
2019-03-09T06:53:21.240Z,8.90
2019-03-09T06:55:48.583Z,8.90
2019-03-09T06:58:16.334Z,8.90
2019-03-09T07:00:43.724Z,8.90
2019-03-09T07:03:11.783Z,8.90
2019-03-09T07:05:39.159Z,8.90
2019-03-09T07:08:06.869Z,8.90
2019-03-09T07:10:34.938Z,8.90
2019-03-09T07:13:02.575Z,8.90
2019-03-09T07:15:32.074Z,8.90
2019-03-09T07:18:05.146Z,8.90
2019-03-09T07:20:32.461Z,8.90
2019-03-09T07:23:00.437Z,8.90
2019-03-09T07:25:28.042Z,8.90
2019-03-09T07:28:03.377Z,8.90
2019-03-09T07:30:30.861Z,8.90
2019-03-09T07:32:58.529Z,8.90
2019-03-09T07:35:26.048Z,8.90
2019-03-09T07:37:53.747Z,8.90
2019-03-09T07:40:21.163Z,9.00
2019-03-09T07:42:48.679Z,9.00
2019-03-09T07:45:17.563Z,9.00
2019-03-09T07:47:45.002Z,9.00
2019-03-09T07:50:12.638Z,9.00
2019-03-09T07:52:40.220Z,9.00
2019-03-09T07:55:10.669Z,9.00
2019-03-09T07:57:39.171Z,9.00
2019-03-09T08:00:09.429Z,9.00
2019-03-09T08:02:36.917Z,9.00
2019-03-09T08:05:04.227Z,9.00
2019-03-09T08:07:31.939Z,9.00
2019-03-09T08:09:59.354Z,9.00
2019-03-09T08:12:27.058Z,9.00
2019-03-09T08:14:54.588Z,9.00
2019-03-09T08:17:23.009Z,9.00
2019-03-09T08:19:50.511Z,9.00
2019-03-09T08:22:18.125Z,9.10
2019-03-09T08:24:45.720Z,9.10
2019-03-09T08:27:13.163Z,9.10
2019-03-09T08:29:40.512Z,9.10
2019-03-09T08:32:09.129Z,9.10
2019-03-09T08:34:36.730Z,9.10
2019-03-09T08:37:04.352Z,9.20
2019-03-09T08:39:31.748Z,9.10
2019-03-09T08:41:59.504Z,9.20
2019-03-09T08:44:27.397Z,9.20
2019-03-09T08:46:55.042Z,9.20
2019-03-09T08:49:22.741Z,9.20
2019-03-09T08:51:50.593Z,9.20
2019-03-09T08:54:18.443Z,9.20
2019-03-09T08:56:45.781Z,9.20
2019-03-09T08:59:13.158Z,9.20
2019-03-09T09:01:40.790Z,9.30
2019-03-09T09:04:08.397Z,9.30
2019-03-09T09:06:36.110Z,9.30
2019-03-09T09:09:04.824Z,9.30
2019-03-09T09:11:34.262Z,9.30
2019-03-09T09:14:01.620Z,9.30
2019-03-09T09:16:29.037Z,9.30
2019-03-09T09:18:56.726Z,9.30
2019-03-09T09:21:24.484Z,9.40
2019-03-09T09:23:52.068Z,9.40
2019-03-09T09:26:19.910Z,9.40
2019-03-09T09:28:47.670Z,9.40
2019-03-09T09:31:15.156Z,9.40
2019-03-09T09:33:42.739Z,9.50
2019-03-09T09:36:10.518Z,9.50
2019-03-09T09:38:38.200Z,9.50
2019-03-09T09:41:05.583Z,9.50
2019-03-09T09:43:33.121Z,9.60
2019-03-09T09:46:00.477Z,9.60
2019-03-09T09:48:28.231Z,9.60
2019-03-09T09:50:57.179Z,9.60
2019-03-09T09:53:24.674Z,9.60
2019-03-09T09:55:52.196Z,9.70
2019-03-09T09:58:19.578Z,9.70
2019-03-09T10:00:47.655Z,9.70
2019-03-09T10:03:15.016Z,9.80
2019-03-09T10:05:42.742Z,9.80
2019-03-09T10:08:10.514Z,9.80
2019-03-09T10:10:38.611Z,9.80
2019-03-09T10:13:06.033Z,9.80
2019-03-09T10:15:33.610Z,9.90
2019-03-09T10:18:00.984Z,9.90
2019-03-09T10:20:29.526Z,9.90
2019-03-09T10:23:04.033Z,9.90
2019-03-09T10:25:27.360Z,9.90
2019-03-09T10:27:55.114Z,10.00
2019-03-09T10:30:23.743Z,10.00
2019-03-09T10:32:51.427Z,10.00
2019-03-09T10:35:23.845Z,10.10
2019-03-09T10:37:53.261Z,10.10
2019-03-09T10:40:20.435Z,10.10
2019-03-09T10:42:48.130Z,10.10
2019-03-09T10:45:15.706Z,10.10
2019-03-09T10:47:43.142Z,10.10
2019-03-09T10:50:11.424Z,10.10
2019-03-09T10:52:38.883Z,10.20
2019-03-09T10:55:08.289Z,10.20
2019-03-09T10:57:35.628Z,10.20
2019-03-09T11:00:05.353Z,10.20
2019-03-09T11:02:34.793Z,10.20
2019-03-09T11:05:02.271Z,10.20
2019-03-09T11:07:29.873Z,10.20
2019-03-09T11:09:57.218Z,10.30
2019-03-09T11:12:24.832Z,10.20
2019-03-09T11:14:52.178Z,10.20
2019-03-09T11:17:19.601Z,10.30
2019-03-09T11:19:47.115Z,10.30
2019-03-09T11:22:14.584Z,10.30
2019-03-09T11:24:42.302Z,10.30
2019-03-09T11:27:10.189Z,10.30
2019-03-09T11:29:37.816Z,10.30
2019-03-09T11:32:05.145Z,10.30
2019-03-09T11:34:32.969Z,10.30
2019-03-09T11:37:00.337Z,10.30
2019-03-09T11:39:29.492Z,10.30
2019-03-09T11:41:56.962Z,10.40
2019-03-09T11:44:24.815Z,10.40
2019-03-09T11:46:52.221Z,10.40
2019-03-09T11:49:19.694Z,10.40
2019-03-09T11:51:47.388Z,10.40
2019-03-09T11:54:15.145Z,10.50
2019-03-09T11:56:42.663Z,10.40
2019-03-09T11:59:10.078Z,10.50
2019-03-09T12:01:37.695Z,10.50
2019-03-09T12:04:05.383Z,10.50
2019-03-09T12:06:33.523Z,10.60
2019-03-09T12:09:01.513Z,10.60
2019-03-09T12:11:31.036Z,10.60
2019-03-09T12:13:58.495Z,10.70
2019-03-09T12:16:29.158Z,10.70
2019-03-09T12:18:58.738Z,10.70
2019-03-09T12:21:26.516Z,10.80
2019-03-09T12:23:53.961Z,10.80
2019-03-09T12:26:21.490Z,10.80
2019-03-09T12:28:48.811Z,10.80
2019-03-09T12:31:16.154Z,10.80
2019-03-09T12:33:43.923Z,10.80
2019-03-09T12:36:11.825Z,10.80
2019-03-09T12:38:39.499Z,10.90
2019-03-09T12:41:07.060Z,10.90
2019-03-09T12:43:35.148Z,10.90
2019-03-09T12:46:02.516Z,10.90
2019-03-09T12:48:30.156Z,10.90
2019-03-09T12:50:57.719Z,10.90
2019-03-09T12:53:25.041Z,11.00
2019-03-09T12:55:52.876Z,11.00
2019-03-09T12:58:20.704Z,11.00
2019-03-09T13:00:48.364Z,11.00
2019-03-09T13:03:15.704Z,11.10
2019-03-09T13:05:43.139Z,11.10
2019-03-09T13:08:11.264Z,11.10
2019-03-09T13:10:38.741Z,11.10
2019-03-09T13:13:06.559Z,11.20
2019-03-09T13:15:34.018Z,11.10
2019-03-09T13:18:01.429Z,11.10
2019-03-09T13:20:29.120Z,11.20
2019-03-09T13:22:57.033Z,11.20
2019-03-09T13:25:25.024Z,11.20
2019-03-09T13:27:52.370Z,11.20
2019-03-09T13:30:19.899Z,11.20
2019-03-09T13:32:47.796Z,11.20
2019-03-09T13:35:15.391Z,11.20
2019-03-09T13:37:42.899Z,11.20
2019-03-09T13:40:10.510Z,11.10
2019-03-09T13:42:37.874Z,11.00
2019-03-09T13:45:06.123Z,10.90
2019-03-09T13:47:33.816Z,10.90
2019-03-09T13:50:01.340Z,10.80
2019-03-09T13:52:29.080Z,10.70
2019-03-09T13:54:56.839Z,10.70
2019-03-09T13:57:24.304Z,10.60
2019-03-09T13:59:51.601Z,10.60
2019-03-09T14:02:19.308Z,10.50
2019-03-09T14:04:46.756Z,10.50
2019-03-09T14:07:14.330Z,10.50
2019-03-09T14:09:42.185Z,10.40
2019-03-09T14:12:09.723Z,10.40
2019-03-09T14:14:37.454Z,10.40
2019-03-09T14:17:05.210Z,10.40
2019-03-09T14:19:32.695Z,10.30
2019-03-09T14:22:00.085Z,10.30
2019-03-09T14:24:27.611Z,10.30
2019-03-09T14:26:55.173Z,10.30
2019-03-09T14:29:22.674Z,10.30
2019-03-09T14:31:50.072Z,10.20
2019-03-09T14:34:17.889Z,10.20
2019-03-09T14:36:45.499Z,10.20
2019-03-09T14:39:12.889Z,10.10
2019-03-09T14:41:53.150Z,10.10
2019-03-09T14:44:20.591Z,10.10
2019-03-09T14:46:47.996Z,10.10
2019-03-09T14:49:15.563Z,10.10
2019-03-09T14:51:43.451Z,10.20
2019-03-09T14:54:10.765Z,10.20
2019-03-09T14:56:38.258Z,10.20
2019-03-09T14:59:05.787Z,10.20
2019-03-09T15:01:33.310Z,10.20
2019-03-09T15:04:01.275Z,10.20
2019-03-09T15:06:28.588Z,10.20
2019-03-09T15:08:56.020Z,10.20
2019-03-09T15:11:24.073Z,10.20
2019-03-09T15:13:52.755Z,10.20
2019-03-09T15:16:20.374Z,10.20
2019-03-09T15:18:49.260Z,10.30
2019-03-09T15:21:17.106Z,10.30
2019-03-09T15:23:44.970Z,10.40
2019-03-09T15:26:12.494Z,10.40
2019-03-09T15:28:40.040Z,10.40
2019-03-09T15:31:07.786Z,10.50
2019-03-09T15:33:35.319Z,10.50
2019-03-09T15:36:02.676Z,10.60
2019-03-09T15:38:30.497Z,10.70
2019-03-09T15:40:57.976Z,10.70
2019-03-09T15:43:25.711Z,10.80
2019-03-09T15:45:53.132Z,10.80
2019-03-09T15:48:20.508Z,10.90
2019-03-09T15:50:48.084Z,10.90
2019-03-09T15:53:15.547Z,11.10
2019-03-09T15:55:43.404Z,11.20
2019-03-09T15:58:10.743Z,11.20
2019-03-09T16:00:38.441Z,11.20
2019-03-09T16:03:05.761Z,11.30
2019-03-09T16:05:33.272Z,11.40
2019-03-09T16:08:00.817Z,11.50
2019-03-09T16:10:28.529Z,11.40
2019-03-09T16:12:56.167Z,11.50
2019-03-09T16:15:23.525Z,11.50
2019-03-09T16:17:50.918Z,11.50
2019-03-09T16:20:18.384Z,11.60
2019-03-09T16:22:46.003Z,11.60
2019-03-09T16:25:14.720Z,11.60
2019-03-09T16:27:42.181Z,11.60
2019-03-09T16:30:12.938Z,11.70
2019-03-09T16:32:40.994Z,11.70
2019-03-09T16:35:08.317Z,11.70
2019-03-09T16:37:35.888Z,11.70
2019-03-09T16:40:03.851Z,11.70
2019-03-09T16:42:31.509Z,11.80
2019-03-09T16:44:58.975Z,11.80
2019-03-09T16:47:26.435Z,11.80
2019-03-09T16:49:53.821Z,11.80
2019-03-09T16:52:21.479Z,11.80
2019-03-09T16:54:48.955Z,11.90
2019-03-09T16:57:16.271Z,11.90
2019-03-09T16:59:44.461Z,12.00
2019-03-09T17:02:12.319Z,12.00
2019-03-09T17:04:40.043Z,12.00
2019-03-09T17:07:07.743Z,12.00
2019-03-09T17:09:35.215Z,12.10
2019-03-09T17:12:02.582Z,12.10
2019-03-09T17:14:30.134Z,12.10
2019-03-09T17:16:57.625Z,12.00
2019-03-09T17:19:24.987Z,12.10
2019-03-09T17:21:52.448Z,12.10
2019-03-09T17:24:19.950Z,12.10
2019-03-09T17:26:47.450Z,12.10
2019-03-09T17:29:14.904Z,12.10
2019-03-09T17:31:42.453Z,12.10
2019-03-09T17:34:10.531Z,12.10
2019-03-09T17:36:38.198Z,12.10
2019-03-09T17:39:05.717Z,12.10
2019-03-09T17:41:35.207Z,12.10
2019-03-09T17:44:02.587Z,12.10
2019-03-09T17:46:30.004Z,12.10
2019-03-09T17:48:57.897Z,12.10
2019-03-09T17:51:25.865Z,12.10
2019-03-09T17:53:53.444Z,12.00
2019-03-09T17:56:20.915Z,12.00
2019-03-09T17:58:48.636Z,12.10
2019-03-09T18:01:16.153Z,12.10
2019-03-09T18:03:43.843Z,12.10
2019-03-09T18:06:11.502Z,12.10
2019-03-09T18:08:39.153Z,12.10
2019-03-09T18:11:07.768Z,12.10
2019-03-09T18:13:35.943Z,12.10
2019-03-09T18:16:04.581Z,12.10
2019-03-09T18:18:32.040Z,12.10
2019-03-09T18:20:59.446Z,12.10
2019-03-09T18:23:26.955Z,12.00
2019-03-09T18:25:55.073Z,12.00
2019-03-09T18:28:22.560Z,12.00
2019-03-09T18:30:53.145Z,12.00
2019-03-09T18:33:20.504Z,12.00
2019-03-09T18:35:47.995Z,12.00
2019-03-09T18:38:15.396Z,12.00
2019-03-09T18:40:43.808Z,12.00
2019-03-09T18:43:11.515Z,11.90
2019-03-09T18:45:38.982Z,11.90
2019-03-09T18:48:06.687Z,11.90
2019-03-09T18:50:34.149Z,11.90
2019-03-09T18:53:01.754Z,11.80
2019-03-09T18:55:30.296Z,11.80
2019-03-09T18:57:57.758Z,11.70
2019-03-09T19:00:25.379Z,11.70
2019-03-09T19:02:52.958Z,11.60
2019-03-09T19:05:20.427Z,11.60
2019-03-09T19:07:47.809Z,11.60
2019-03-09T19:10:15.847Z,11.60
2019-03-09T19:12:43.362Z,11.50
2019-03-09T19:15:11.887Z,11.60
2019-03-09T19:17:40.384Z,11.50
2019-03-09T19:20:09.046Z,11.50
2019-03-09T19:22:36.478Z,11.50
2019-03-09T19:25:04.737Z,11.50
2019-03-09T19:27:32.591Z,11.50
2019-03-09T19:30:00.082Z,11.50
2019-03-09T19:32:27.556Z,11.50
2019-03-09T19:34:56.564Z,11.50
2019-03-09T19:37:24.038Z,11.50
2019-03-09T19:39:51.912Z,11.50
2019-03-09T19:42:19.734Z,11.50
2019-03-09T19:44:47.094Z,11.50
2019-03-09T19:47:15.192Z,11.50
2019-03-09T19:49:42.696Z,11.60
2019-03-09T19:52:10.142Z,11.60
2019-03-09T19:54:37.747Z,11.60
2019-03-09T19:57:05.387Z,11.60
2019-03-09T19:59:33.392Z,11.60
2019-03-09T20:02:02.120Z,11.60
2019-03-09T20:04:30.134Z,11.60
2019-03-09T20:06:57.926Z,11.60
2019-03-09T20:09:25.482Z,11.60
2019-03-09T20:11:52.846Z,11.60
2019-03-09T20:14:20.514Z,11.60
2019-03-09T20:16:48.059Z,11.60
2019-03-09T20:19:15.554Z,11.60
2019-03-09T20:21:43.067Z,11.60
2019-03-09T20:24:10.543Z,11.60
2019-03-09T20:26:38.010Z,11.50
2019-03-09T20:29:05.640Z,11.50
2019-03-09T20:31:33.778Z,11.50
2019-03-09T20:34:01.208Z,11.50
2019-03-09T20:36:28.679Z,11.50
2019-03-09T20:38:56.355Z,11.50
2019-03-09T20:41:23.752Z,11.50
2019-03-09T20:43:51.088Z,11.50
2019-03-09T20:46:18.582Z,11.50
2019-03-09T20:48:46.514Z,11.40
2019-03-09T20:51:14.272Z,11.40
2019-03-09T20:53:41.802Z,11.40
2019-03-09T20:56:09.615Z,11.40
2019-03-09T20:58:37.055Z,11.40
2019-03-09T21:01:04.639Z,11.40
2019-03-09T21:03:32.484Z,11.40
2019-03-09T21:06:00.556Z,11.40
2019-03-09T21:08:28.189Z,11.40
2019-03-09T21:11:03.912Z,11.40
2019-03-09T21:13:26.108Z,11.40
2019-03-09T21:15:53.568Z,11.40
2019-03-09T21:18:21.308Z,11.40
2019-03-09T21:20:48.783Z,11.40
2019-03-09T21:23:16.286Z,11.40
2019-03-09T21:25:44.168Z,11.40
2019-03-09T21:28:11.977Z,11.40
2019-03-09T21:30:39.532Z,11.40
2019-03-09T21:33:07.163Z,11.30
2019-03-09T21:35:34.661Z,11.30
2019-03-09T21:38:02.311Z,11.30
2019-03-09T21:40:31.219Z,11.40
2019-03-09T21:42:58.726Z,11.30
2019-03-09T21:45:26.196Z,11.40
2019-03-09T21:47:53.817Z,11.40
2019-03-09T21:50:21.887Z,11.40
2019-03-09T21:52:49.911Z,11.30
2019-03-09T21:55:39.006Z,11.30
2019-03-09T21:58:06.661Z,11.40
2019-03-09T22:00:34.404Z,11.40
2019-03-09T22:03:02.210Z,11.40
2019-03-09T22:05:30.712Z,11.40
2019-03-09T22:07:58.194Z,11.40
2019-03-09T22:10:25.973Z,11.40
2019-03-09T22:12:53.316Z,11.40
2019-03-09T22:15:20.659Z,11.40
2019-03-09T22:17:47.994Z,11.40
2019-03-09T22:20:16.928Z,11.40
2019-03-09T22:22:44.573Z,11.50
2019-03-09T22:25:12.257Z,11.40
2019-03-09T22:27:39.868Z,11.50
2019-03-09T22:30:08.989Z,11.40
2019-03-09T22:32:36.334Z,11.40
2019-03-09T22:35:03.893Z,11.50
2019-03-09T22:37:31.272Z,11.50
2019-03-09T22:39:58.782Z,11.50
2019-03-09T22:42:26.499Z,11.50
2019-03-09T22:44:54.160Z,11.50
2019-03-09T22:47:21.825Z,11.50
2019-03-09T22:49:49.486Z,11.50
2019-03-09T22:52:17.453Z,11.50
2019-03-09T22:54:45.345Z,11.50
2019-03-09T22:57:13.384Z,11.50
2019-03-09T22:59:41.053Z,11.50
2019-03-09T23:02:08.765Z,11.50
2019-03-09T23:04:36.343Z,11.50
2019-03-09T23:07:03.727Z,11.50
2019-03-09T23:09:31.043Z,11.40
2019-03-09T23:11:58.685Z,11.40
2019-03-09T23:14:26.511Z,11.40
2019-03-09T23:16:53.876Z,11.40
2019-03-09T23:19:22.768Z,11.40
2019-03-09T23:21:50.158Z,11.40
2019-03-09T23:24:17.729Z,11.40
2019-03-09T23:26:45.216Z,11.40
2019-03-09T23:29:12.988Z,11.30
2019-03-09T23:31:40.907Z,11.30
2019-03-09T23:34:09.540Z,11.30
2019-03-09T23:36:37.209Z,11.30
2019-03-09T23:39:06.365Z,11.30
2019-03-09T23:41:35.374Z,11.30
2019-03-09T23:44:02.956Z,11.20
2019-03-09T23:46:30.446Z,11.30
2019-03-09T23:48:58.177Z,11.20
2019-03-09T23:51:26.963Z,11.20
2019-03-09T23:53:54.442Z,11.20
2019-03-09T23:56:21.746Z,11.20
2019-03-09T23:58:49.543Z,11.20
